Time;durP1;ratioP1;P1;durP2;ratioP2;P2;SDS_P1;SDS_P2;PMS_P1;PMS_P2;Temp;Humidity;BMP_temperature;BMP_pressure;BME280_temperature;BME280_humidity;BME280_pressure;Samples;Min_cycle;Max_cycle;Signal;HPM_P1;HPM_P2
2022/12/04 00:00:31;;;;;;;;;;;;;;;;;;5069756;28;20007;-56
2022/12/04 00:02:56;;;;;;;;;;;;;;;;;;5063809;28;19914;-57
2022/12/04 00:05:21;;;;;;;;;;;;;;;;;;5079687;28;19920;-58
2022/12/04 00:07:46;;;;;;;;;;;;;;;;;;5066925;28;19913;-58
2022/12/04 00:10:11;;;;;;;;;;;;;;;;;;5071181;28;19921;-58
2022/12/04 00:12:36;;;;;;;;;;;;;;;;;;5061611;28;19961;-56
2022/12/04 00:15:02;;;;;;;;;;;;;;;;;;5064472;28;19913;-58
2022/12/04 00:17:27;;;;;;;;;;;;;;;;;;5067899;28;19921;-58
2022/12/04 00:19:52;;;;;;;;;;;;;;;;;;5071788;28;19916;-55
2022/12/04 00:22:19;;;;;;;;;;;;;;;;;;5073074;28;19916;-57
2022/12/04 00:24:45;;;;;;;;;;;;;;;;;;5075924;28;19913;-58
2022/12/04 00:27:10;;;;;;;;;;;;;;;;;;5081581;28;19920;-55
2022/12/04 00:29:35;;;;;;;;;;;;;;;;;;5073819;28;19912;-58
2022/12/04 00:32:00;;;;;;;;;;;;;;;;;;5098975;28;20008;-54
2022/12/04 00:34:27;;;;;;;;;;;;;;;;;;5070605;28;19947;-58
2022/12/04 00:36:52;;;;;;;;;;;;;;;;;;5075951;28;19924;-55
2022/12/04 00:39:17;;;;;;;;;;;;;;;;;;5071242;28;19916;-57
2022/12/04 00:41:42;;;;;;;;;;;;;;;;;;5071642;28;19912;-54
2022/12/04 00:44:07;;;;;;;;;;;;;;;;;;5074491;28;20253;-55
2022/12/04 00:46:32;;;;;;;;;;;;;;;;;;5068613;28;19916;-58
2022/12/04 00:49:01;;;;;;;;;;;;;;;;;;5077630;28;19955;-54
2022/12/04 00:51:26;;;;;;;;;;;;;;;;;;5072483;28;19999;-58
2022/12/04 00:53:51;;;;;;;;;;;;;;;;;;5083441;28;20425;-57
2022/12/04 00:56:16;;;;;;;;;;;;;;;;;;5073177;28;19913;-55
2022/12/04 00:58:41;;;;;;;;;;;;;;;;;;5074331;28;19962;-56
2022/12/04 01:01:06;;;;;;;;;;;;;;;;;;5073357;28;19938;-58
2022/12/04 01:03:32;;;;;;;;;;;;;;;;;;5106621;28;19977;-57
2022/12/04 01:05:57;;;;;;;;;;;;;;;;;;5075523;28;19916;-55
2022/12/04 01:08:22;;;;;;;;;;;;;;;;;;5079083;28;20478;-56
2022/12/04 01:10:47;;;;;;;;;;;;;;;;;;5075623;28;19912;-57
2022/12/04 01:13:12;;;;;;;;;;;;;;;;;;5071612;28;19916;-55
2022/12/04 01:15:37;;;;;;;;;;;;;;;;;;5073203;28;19959;-57
2022/12/04 01:18:02;;;;;;;;;;;;;;;;;;5071372;28;19909;-56
2022/12/04 01:20:28;;;;;;;;;;;;;;;;;;5073157;28;19965;-55
2022/12/04 01:22:53;;;;;;;;;;;;;;;;;;5082196;28;20095;-57
2022/12/04 01:25:18;;;;;;;;;;;;;;;;;;5074324;28;20012;-56
2022/12/04 01:27:43;;;;;;;;;;;;;;;;;;5074681;28;19913;-55
2022/12/04 01:30:08;;;;;;;;;;;;;;;;;;5071795;28;19919;-56
2022/12/04 01:32:33;;;;;;;;;;;;;;;;;;5076375;28;20386;-57
2022/12/04 01:34:58;;;;;;;;;;;;;;;;;;5071824;28;20001;-58
2022/12/04 01:37:23;;;;;;;;;;;;;;;;;;5071515;28;19938;-55
2022/12/04 01:39:49;;;;;;;;;;;;;;;;;;5073827;28;20285;-54
2022/12/04 01:42:14;;;;;;;;;;;;;;;;;;5072809;28;20280;-58
2022/12/04 01:44:39;;;;;;;;;;;;;;;;;;5072365;28;19955;-57
2022/12/04 01:47:04;;;;;;;;;;;;;;;;;;5074039;28;19917;-58
2022/12/04 01:49:29;;;;;;;;;;;;;;;;;;5073364;28;19913;-57
2022/12/04 01:51:55;;;;;;;;;;;;;;;;;;5074238;28;20361;-55
2022/12/04 01:54:20;;;;;;;;;;;;;;;;;;5074917;28;19952;-57
2022/12/04 01:56:45;;;;;;;;;;;;;;;;;;5088276;28;19912;-59
2022/12/04 01:59:10;;;;;;;;;;;;;;;;;;5068066;28;20086;-56
2022/12/04 02:01:35;;;;;;;;;;;;;;;;;;5073641;28;19913;-57
2022/12/04 02:04:00;;;;;;;;;;;;;;;;;;5072325;28;19973;-54
2022/12/04 02:06:25;;;;;;;;;;;;;;;;;;5071905;28;20011;-57
2022/12/04 02:08:50;;;;;;;;;;;;;;;;;;5078275;28;19919;-57
2022/12/04 02:11:16;;;;;;;;;;;;;;;;;;5073664;28;19919;-57
2022/12/04 02:13:41;;;;;;;;;;;;;;;;;;5069693;28;19957;-57
2022/12/04 02:16:06;;;;;;;;;;;;;;;;;;5071776;28;19920;-57
2022/12/04 02:18:31;;;;;;;;;;;;;;;;;;5072214;28;19916;-57
2022/12/04 02:20:56;;;;;;;;;;;;;;;;;;5075635;28;20045;-57
2022/12/04 02:23:21;;;;;;;;;;;;;;;;;;5071889;28;20295;-55
2022/12/04 02:25:46;;;;;;;;;;;;;;;;;;5071793;28;19925;-57
2022/12/04 02:28:11;;;;;;;;;;;;;;;;;;5104889;28;19916;-55
2022/12/04 02:30:37;;;;;;;;;;;;;;;;;;5067966;28;19967;-57
2022/12/04 02:33:02;;;;;;;;;;;;;;;;;;5072028;28;19916;-57
2022/12/04 02:35:27;;;;;;;;;;;;;;;;;;5070806;28;19908;-53
2022/12/04 02:37:52;;;;;;;;;;;;;;;;;;5071056;28;20400;-58
2022/12/04 02:40:17;;;;;;;;;;;;;;;;;;5069718;28;19950;-55
2022/12/04 02:42:42;;;;;;;;;;;;;;;;;;5069509;28;19913;-55
2022/12/04 02:45:07;;;;;;;;;;;;;;;;;;5082940;28;19944;-56
2022/12/04 02:47:32;;;;;;;;;;;;;;;;;;5072847;28;19917;-55
2022/12/04 02:49:58;;;;;;;;;;;;;;;;;;5076806;28;20356;-58
2022/12/04 02:52:23;;;;;;;;;;;;;;;;;;5071590;28;19924;-55
2022/12/04 02:54:48;;;;;;;;;;;;;;;;;;5073570;28;20015;-55
2022/12/04 02:57:13;;;;;;;;;;;;;;;;;;5073243;28;19927;-58
2022/12/04 02:59:38;;;;;;;;;;;;;;;;;;5071582;28;20365;-53
2022/12/04 03:02:03;;;;;;;;;;;;;;;;;;5071507;28;19928;-55
2022/12/04 03:04:32;;;;;;;;;;;;;;;;;;5068974;28;19919;-54
2022/12/04 03:06:57;;;;;;;;;;;;;;;;;;5070315;28;20389;-53
2022/12/04 03:09:22;;;;;;;;;;;;;;;;;;5071544;28;19956;-56
2022/12/04 03:11:47;;;;;;;;;;;;;;;;;;5067985;28;19919;-56
2022/12/04 03:14:12;;;;;;;;;;;;;;;;;;5070633;28;19967;-55
2022/12/04 03:16:38;;;;;;;;;;;;;;;;;;5069484;28;20138;-58
2022/12/04 03:19:03;;;;;;;;;;;;;;;;;;5073108;28;19912;-55
2022/12/04 03:21:28;;;;;;;;;;;;;;;;;;5070501;28;19935;-58
2022/12/04 03:23:53;;;;;;;;;;;;;;;;;;5071582;28;19924;-55
2022/12/04 03:26:18;;;;;;;;;;;;;;;;;;5070111;28;20021;-56
2022/12/04 03:28:43;;;;;;;;;;;;;;;;;;5070397;28;19916;-57
2022/12/04 03:31:09;;;;;;;;;;;;;;;;;;5070932;28;20261;-56
2022/12/04 03:33:34;;;;;;;;;;;;;;;;;;5075105;28;19939;-51
2022/12/04 03:35:59;;;;;;;;;;;;;;;;;;5099453;28;19912;-58
2022/12/04 03:38:24;;;;;;;;;;;;;;;;;;5070171;28;19912;-58
2022/12/04 03:40:49;;;;;;;;;;;;;;;;;;5071696;28;19916;-56
2022/12/04 03:43:15;;;;;;;;;;;;;;;;;;5067108;28;20006;-57
2022/12/04 03:45:40;;;;;;;;;;;;;;;;;;5072151;28;19959;-56
2022/12/04 03:48:05;;;;;;;;;;;;;;;;;;5074324;28;20025;-56
2022/12/04 03:50:30;;;;;;;;;;;;;;;;;;5069854;28;19912;-56
2022/12/04 03:52:55;;;;;;;;;;;;;;;;;;5069607;28;19912;-54
2022/12/04 03:55:20;;;;;;;;;;;;;;;;;;5071071;28;19934;-56
2022/12/04 03:57:45;;;;;;;;;;;;;;;;;;5103273;28;19923;-55
2022/12/04 04:00:11;;;;;;;;;;;;;;;;;;5075109;28;19912;-53
2022/12/04 04:02:36;;;;;;;;;;;;;;;;;;5068569;28;19917;-56
2022/12/04 04:05:01;;;;;;;;;;;;;;;;;;5070895;28;19923;-57
2022/12/04 04:07:26;;;;;;;;;;;;;;;;;;5068751;28;19953;-58
2022/12/04 04:09:51;;;;;;;;;;;;;;;;;;5071268;28;19917;-57
2022/12/04 04:12:16;;;;;;;;;;;;;;;;;;5067083;28;20615;-52
2022/12/04 04:25:37;;;;;;;;;;;;;;;;;;5065356;28;19946;-56
2022/12/04 04:28:02;;;;;;;;;;;;;;;;;;5064659;28;19917;-55
2022/12/04 04:30:28;;;;;;;;;;;;;;;;;;5067644;28;20284;-54
2022/12/04 04:32:53;;;;;;;;;;;;;;;;;;5100915;28;20054;-58
2022/12/04 04:35:18;;;;;;;;;;;;;;;;;;5061766;28;19913;-56
2022/12/04 04:37:43;;;;;;;;;;;;;;;;;;5068048;28;19916;-55
2022/12/04 04:40:08;;;;;;;;;;;;;;;;;;5070870;28;19919;-57
2022/12/04 04:42:33;;;;;;;;;;;;;;;;;;5067416;28;20058;-56
2022/12/04 04:44:58;;;;;;;;;;;;;;;;;;5068646;28;19952;-58
2022/12/04 04:47:23;;;;;;;;;;;;;;;;;;5070921;28;19920;-56
2022/12/04 04:49:49;;;;;;;;;;;;;;;;;;5070626;28;19919;-49
2022/12/04 04:52:14;;;;;;;;;;;;;;;;;;5069619;28;19913;-58
2022/12/04 04:54:39;;;;;;;;;;;;;;;;;;5065838;28;19928;-57
2022/12/04 04:57:04;;;;;;;;;;;;;;;;;;5079204;28;20003;-56
2022/12/04 04:59:29;;;;;;;;;;;;;;;;;;5073085;28;19958;-53
2022/12/04 05:01:54;;;;;;;;;;;;;;;;;;5071290;28;19955;-50
2022/12/04 05:04:19;;;;;;;;;;;;;;;;;;5068702;28;19919;-54
2022/12/04 05:06:45;;;;;;;;;;;;;;;;;;5071647;28;20411;-57
2022/12/04 05:09:10;;;;;;;;;;;;;;;;;;5074564;28;20368;-59
2022/12/04 05:11:35;;;;;;;;;;;;;;;;;;5061236;28;19917;-51
2022/12/04 05:14:00;;;;;;;;;;;;;;;;;;5070290;28;19916;-54
2022/12/04 05:16:25;;;;;;;;;;;;;;;;;;5090795;28;19916;-56
2022/12/04 05:21:34;;;;;;;;;;;;;;;;;;5073720;28;19939;-54
2022/12/04 05:24:00;;;;;;;;;;;;;;;;;;5075292;28;20490;-52
2022/12/04 05:26:25;;;;;;;;;;;;;;;;;;5071122;28;20324;-54
2022/12/04 05:28:50;;;;;;;;;;;;;;;;;;5080123;28;19958;-55
2022/12/04 05:31:15;;;;;;;;;;;;;;;;;;5074079;28;19927;-57
2022/12/04 05:33:40;;;;;;;;;;;;;;;;;;5088606;28;19940;-55
2022/12/04 05:36:05;;;;;;;;;;;;;;;;;;5082601;28;20376;-57
2022/12/04 05:38:30;;;;;;;;;;;;;;;;;;5073282;28;19924;-57
2022/12/04 05:40:55;;;;;;;;;;;;;;;;;;5068211;28;19915;-54
2022/12/04 05:43:21;;;;;;;;;;;;;;;;;;5068345;28;20387;-58
2022/12/04 05:45:46;;;;;;;;;;;;;;;;;;5071912;28;20323;-55
2022/12/04 05:48:11;;;;;;;;;;;;;;;;;;5074669;28;19930;-57
2022/12/04 05:50:36;;;;;;;;;;;;;;;;;;5081469;28;19912;-57
2022/12/04 05:53:01;;;;;;;;;;;;;;;;;;5074774;28;20015;-55
2022/12/04 05:55:26;;;;;;;;;;;;;;;;;;5074591;28;19912;-58
2022/12/04 05:57:51;;;;;;;;;;;;;;;;;;5103370;27;20023;-55
2022/12/04 06:00:17;;;;;;;;;;;;;;;;;;5103925;28;19912;-57
2022/12/04 06:02:42;;;;;;;;;;;;;;;;;;5071996;28;20036;-55
2022/12/04 06:05:07;;;;;;;;;;;;;;;;;;5067526;28;19912;-59
2022/12/04 06:07:32;;;;;;;;;;;;;;;;;;5073237;28;19919;-57
2022/12/04 06:09:57;;;;;;;;;;;;;;;;;;5069658;28;19948;-57
2022/12/04 06:12:22;;;;;;;;;;;;;;;;;;5070518;28;19924;-55
2022/12/04 06:14:47;;;;;;;;;;;;;;;;;;5072279;28;19919;-55
2022/12/04 06:17:13;;;;;;;;;;;;;;;;;;5072264;28;20728;-58
2022/12/04 06:19:38;;;;;;;;;;;;;;;;;;5074752;28;20063;-57
2022/12/04 06:22:03;;;;;;;;;;;;;;;;;;5071889;28;19912;-57
2022/12/04 06:24:28;;;;;;;;;;;;;;;;;;5072877;28;19930;-53
2022/12/04 06:26:53;;;;;;;;;;;;;;;;;;5072756;28;19924;-59
2022/12/04 06:29:18;;;;;;;;;;;;;;;;;;5069475;28;20292;-55
2022/12/04 06:31:43;;;;;;;;;;;;;;;;;;5072052;28;20369;-58
2022/12/04 06:34:08;;;;;;;;;;;;;;;;;;5072911;28;19916;-57
2022/12/04 06:36:34;;;;;;;;;;;;;;;;;;5072892;28;19947;-58
2022/12/04 06:38:59;;;;;;;;;;;;;;;;;;5070313;28;19912;-57
2022/12/04 06:41:24;;;;;;;;;;;;;;;;;;5071700;28;19919;-59
2022/12/04 06:43:50;;;;;;;;;;;;;;;;;;5070321;28;20369;-54
2022/12/04 06:46:15;;;;;;;;;;;;;;;;;;5073265;28;19966;-55
2022/12/04 06:48:41;;;;;;;;;;;;;;;;;;5070227;28;19925;-57
2022/12/04 06:51:06;;;;;;;;;;;;;;;;;;5071834;28;19913;-56
2022/12/04 06:53:31;;;;;;;;;;;;;;;;;;5071316;28;20324;-57
2022/12/04 06:55:56;;;;;;;;;;;;;;;;;;5069237;28;19966;-58
2022/12/04 06:58:22;;;;;;;;;;;;;;;;;;5068057;28;19921;-58
2022/12/04 07:00:47;;;;;;;;;;;;;;;;;;5080024;28;20029;-55
2022/12/04 07:03:12;;;;;;;;;;;;;;;;;;5072706;28;19916;-58
2022/12/04 07:05:37;;;;;;;;;;;;;;;;;;5072197;28;19916;-52
2022/12/04 07:08:02;;;;;;;;;;;;;;;;;;5077012;28;19942;-58
2022/12/04 07:10:27;;;;;;;;;;;;;;;;;;5067338;28;19927;-57
2022/12/04 07:12:52;;;;;;;;;;;;;;;;;;5067733;28;19916;-55
2022/12/04 07:15:18;;;;;;;;;;;;;;;;;;5079311;28;20357;-56
2022/12/04 07:17:43;;;;;;;;;;;;;;;;;;5072702;28;20325;-56
2022/12/04 07:20:08;;;;;;;;;;;;;;;;;;5072857;28;19917;-56
2022/12/04 07:22:33;;;;;;;;;;;;;;;;;;5064978;28;19931;-58
2022/12/04 07:24:59;;;;;;;;;;;;;;;;;;5074751;28;20324;-57
2022/12/04 07:27:24;;;;;;;;;;;;;;;;;;5073089;28;20437;-58
2022/12/04 07:29:49;;;;;;;;;;;;;;;;;;5070919;28;20285;-57
2022/12/04 07:32:14;;;;;;;;;;;;;;;;;;5068948;28;19916;-53
2022/12/04 07:34:39;;;;;;;;;;;;;;;;;;5071230;28;20345;-57
2022/12/04 07:37:04;;;;;;;;;;;;;;;;;;5072648;28;19967;-56
2022/12/04 07:39:30;;;;;;;;;;;;;;;;;;5068619;28;19913;-59
2022/12/04 07:41:55;;;;;;;;;;;;;;;;;;5066442;28;20000;-57
2022/12/04 07:44:20;;;;;;;;;;;;;;;;;;5069588;28;19913;-55
2022/12/04 07:46:45;;;;;;;;;;;;;;;;;;5073006;28;19927;-57
2022/12/04 07:49:10;;;;;;;;;;;;;;;;;;5075673;28;19967;-55
2022/12/04 07:51:35;;;;;;;;;;;;;;;;;;5083173;28;19912;-57
2022/12/04 07:54:00;;;;;;;;;;;;;;;;;;5071776;28;19908;-58
2022/12/04 07:56:26;;;;;;;;;;;;;;;;;;5071014;28;20367;-51
2022/12/04 07:58:51;;;;;;;;;;;;;;;;;;5062073;28;20361;-57
2022/12/04 08:01:16;;;;;;;;;;;;;;;;;;5075830;28;19912;-58
2022/12/04 08:03:41;;;;;;;;;;;;;;;;;;5063134;28;20378;-54
2022/12/04 08:06:06;;;;;;;;;;;;;;;;;;5072450;28;19916;-57
2022/12/04 08:08:31;;;;;;;;;;;;;;;;;;5069948;28;19908;-57
2022/12/04 08:10:56;;;;;;;;;;;;;;;;;;5099040;28;19912;-56
2022/12/04 08:13:22;;;;;;;;;;;;;;;;;;5059260;28;20323;-57
2022/12/04 08:15:47;;;;;;;;;;;;;;;;;;5063749;28;20250;-55
2022/12/04 08:18:12;;;;;;;;;;;;;;;;;;5103133;28;20391;-57
2022/12/04 08:20:37;;;;;;;;;;;;;;;;;;5068670;28;19999;-57
2022/12/04 08:23:02;;;;;;;;;;;;;;;;;;5070920;28;20319;-55
2022/12/04 08:25:27;;;;;;;;;;;;;;;;;;5056068;28;19920;-55
2022/12/04 08:27:53;;;;;;;;;;;;;;;;;;5061333;28;19921;-57
2022/12/04 08:30:18;;;;;;;;;;;;;;;;;;5065187;28;19913;-58
2022/12/04 08:32:43;;;;;;;;;;;;;;;;;;5068968;28;19912;-66
2022/12/04 08:35:08;;;;;;;;;;;;;;;;;;5059785;28;20051;-52
2022/12/04 08:37:33;;;;;;;;;;;;;;;;;;5063589;28;19916;-58
2022/12/04 08:39:58;;;;;;;;;;;;;;;;;;5065904;28;19913;-57
2022/12/04 08:42:23;;;;;;;;;;;;;;;;;;5068752;28;20361;-58
2022/12/04 08:44:48;;;;;;;;;;;;;;;;;;5072806;28;20003;-58
2022/12/04 08:47:14;;;;;;;;;;;;;;;;;;5070053;28;19923;-58
2022/12/04 08:49:39;;;;;;;;;;;;;;;;;;5070043;28;19913;-58
2022/12/04 08:52:04;;;;;;;;;;;;;;;;;;5067140;28;20047;-53
2022/12/04 08:54:29;;;;;;;;;;;;;;;;;;5072064;28;19909;-57
2022/12/04 08:56:54;;;;;;;;;;;;;;;;;;5070007;28;19912;-58
2022/12/04 08:59:19;;;;;;;;;;;;;;;;;;5063650;28;19919;-55
2022/12/04 09:01:44;;;;;;;;;;;;;;;;;;5065265;28;19945;-60
2022/12/04 09:04:10;;;;;;;;;;;;;;;;;;5075685;28;20405;-58
2022/12/04 09:06:35;;;;;;;;;;;;;;;;;;5071774;28;20340;-51
2022/12/04 09:09:00;;;;;;;;;;;;;;;;;;5071536;28;20269;-57
2022/12/04 09:11:25;;;;;;;;;;;;;;;;;;5072206;28;20037;-57
2022/12/04 09:13:50;;;;;;;;;;;;;;;;;;5059867;28;20293;-56
2022/12/04 09:16:15;;;;;;;;;;;;;;;;;;5096290;27;19917;-56
2022/12/04 09:18:41;;;;;;;;;;;;;;;;;;5067169;28;20327;-54
2022/12/04 09:21:06;;;;;;;;;;;;;;;;;;5072994;28;20491;-56
2022/12/04 09:23:31;;;;;;;;;;;;;;;;;;5092585;28;19912;-56
2022/12/04 09:25:56;;;;;;;;;;;;;;;;;;5065391;28;19960;-57
2022/12/04 09:28:21;;;;;;;;;;;;;;;;;;5074446;28;19991;-56
2022/12/04 09:30:46;;;;;;;;;;;;;;;;;;5072372;28;19909;-56
2022/12/04 09:33:12;;;;;;;;;;;;;;;;;;5067239;28;19913;-58
2022/12/04 09:35:37;;;;;;;;;;;;;;;;;;5055261;28;19909;-57
2022/12/04 09:38:02;;;;;;;;;;;;;;;;;;5073129;28;19966;-57
2022/12/04 09:40:27;;;;;;;;;;;;;;;;;;5068788;28;19916;-57
2022/12/04 09:42:52;;;;;;;;;;;;;;;;;;5063559;28;19916;-55
2022/12/04 09:45:17;;;;;;;;;;;;;;;;;;5072185;28;20403;-57
2022/12/04 09:47:42;;;;;;;;;;;;;;;;;;5074290;28;19915;-55
2022/12/04 09:50:08;;;;;;;;;;;;;;;;;;5071218;28;19970;-54
2022/12/04 09:52:33;;;;;;;;;;;;;;;;;;5070650;28;20456;-58
2022/12/04 09:54:58;;;;;;;;;;;;;;;;;;5071264;28;20357;-57
2022/12/04 09:57:23;;;;;;;;;;;;;;;;;;5065035;28;20404;-56
2022/12/04 09:59:48;;;;;;;;;;;;;;;;;;5062869;28;19912;-57
2022/12/04 10:02:13;;;;;;;;;;;;;;;;;;5058731;28;19924;-59
2022/12/04 10:04:38;;;;;;;;;;;;;;;;;;5067490;28;19916;-58
2022/12/04 10:07:04;;;;;;;;;;;;;;;;;;5064438;28;19921;-57
2022/12/04 10:09:29;;;;;;;;;;;;;;;;;;5063420;28;19958;-56
2022/12/04 10:11:54;;;;;;;;;;;;;;;;;;5058444;28;20437;-57
2022/12/04 10:14:19;;;;;;;;;;;;;;;;;;5063553;28;19921;-58
2022/12/04 10:16:44;;;;;;;;;;;;;;;;;;5066729;28;19917;-58
2022/12/04 10:19:09;;;;;;;;;;;;;;;;;;5071111;28;19912;-57
2022/12/04 10:21:34;;;;;;;;;;;;;;;;;;5064668;28;20003;-54
2022/12/04 10:23:59;;;;;;;;;;;;;;;;;;5069994;28;20364;-58
2022/12/04 10:26:25;;;;;;;;;;;;;;;;;;5065566;28;20377;-64
2022/12/04 10:28:50;;;;;;;;;;;;;;;;;;5093761;27;20341;-62
2022/12/04 10:31:15;;;;;;;;;;;;;;;;;;5066399;28;19934;-61
2022/12/04 10:33:40;;;;;;;;;;;;;;;;;;5058989;28;20329;-62
2022/12/04 10:36:05;;;;;;;;;;;;;;;;;;5058968;28;20373;-63
2022/12/04 10:38:30;;;;;;;;;;;;;;;;;;5070646;28;19916;-62
2022/12/04 10:40:55;;;;;;;;;;;;;;;;;;5064432;28;19917;-62
2022/12/04 10:43:21;;;;;;;;;;;;;;;;;;5057999;28;19913;-63
2022/12/04 10:45:46;;;;;;;;;;;;;;;;;;5067926;28;20381;-62
2022/12/04 10:48:11;;;;;;;;;;;;;;;;;;5070663;28;19916;-62
2022/12/04 10:50:36;;;;;;;;;;;;;;;;;;5068636;28;20194;-63
2022/12/04 10:53:01;;;;;;;;;;;;;;;;;;5065750;28;20388;-63
2022/12/04 10:55:26;;;;;;;;;;;;;;;;;;5066433;28;20381;-62
2022/12/04 10:57:51;;;;;;;;;;;;;;;;;;5063398;28;19913;-62
2022/12/04 11:00:17;;;;;;;;;;;;;;;;;;5066497;28;19916;-62
2022/12/04 11:02:42;;;;;;;;;;;;;;;;;;5064783;28;19934;-62
2022/12/04 11:05:07;;;;;;;;;;;;;;;;;;5055451;28;20024;-62
2022/12/04 11:07:32;;;;;;;;;;;;;;;;;;5064362;28;20378;-62
2022/12/04 11:09:57;;;;;;;;;;;;;;;;;;5065141;28;19913;-62
2022/12/04 11:12:23;;;;;;;;;;;;;;;;;;5063050;28;20258;-62
2022/12/04 11:14:48;;;;;;;;;;;;;;;;;;5063586;28;20365;-62
2022/12/04 11:17:13;;;;;;;;;;;;;;;;;;5071617;28;20284;-61
2022/12/04 11:19:38;;;;;;;;;;;;;;;;;;5071770;28;20302;-62
2022/12/04 11:22:03;;;;;;;;;;;;;;;;;;5066725;28;20326;-61
2022/12/04 11:24:28;;;;;;;;;;;;;;;;;;5070628;28;19912;-62
2022/12/04 11:26:53;;;;;;;;;;;;;;;;;;5069923;28;19931;-62
2022/12/04 11:29:19;;;;;;;;;;;;;;;;;;5103621;28;19936;-62
2022/12/04 11:31:44;;;;;;;;;;;;;;;;;;5072808;28;19908;-62
2022/12/04 11:34:09;;;;;;;;;;;;;;;;;;5072481;28;19915;-62
2022/12/04 11:36:34;;;;;;;;;;;;;;;;;;5063188;28;19935;-62
2022/12/04 11:38:59;;;;;;;;;;;;;;;;;;5084316;28;19948;-62
2022/12/04 11:41:25;;;;;;;;;;;;;;;;;;5052494;28;19922;-62
2022/12/04 11:43:50;;;;;;;;;;;;;;;;;;5079382;28;19939;-62
2022/12/04 11:46:15;;;;;;;;;;;;;;;;;;5088762;28;19993;-62
2022/12/04 11:48:40;;;;;;;;;;;;;;;;;;5071214;28;19909;-62
2022/12/04 11:51:05;;;;;;;;;;;;;;;;;;5076439;28;20348;-62
2022/12/04 11:53:30;;;;;;;;;;;;;;;;;;5105657;28;19908;-62
2022/12/04 11:55:55;;;;;;;;;;;;;;;;;;5088065;28;19965;-62
2022/12/04 11:58:20;;;;;;;;;;;;;;;;;;5072150;28;20046;-63
2022/12/04 12:00:46;;;;;;;;;;;;;;;;;;5085994;28;19961;-63
2022/12/04 12:03:11;;;;;;;;;;;;;;;;;;5092525;28;19931;-62
2022/12/04 12:05:36;;;;;;;;;;;;;;;;;;5071214;28;19920;-62
2022/12/04 12:08:01;;;;;;;;;;;;;;;;;;5069742;28;19919;-63
2022/12/04 12:10:26;;;;;;;;;;;;;;;;;;5072263;28;19955;-63
2022/12/04 12:12:51;;;;;;;;;;;;;;;;;;5087319;28;19938;-63
2022/12/04 12:15:16;;;;;;;;;;;;;;;;;;5091225;28;19912;-63
2022/12/04 12:17:42;;;;;;;;;;;;;;;;;;5095244;28;19913;-62
2022/12/04 12:20:07;;;;;;;;;;;;;;;;;;5076386;28;20423;-63
2022/12/04 12:22:32;;;;;;;;;;;;;;;;;;5091735;28;19917;-62
2022/12/04 12:24:57;;;;;;;;;;;;;;;;;;5072617;28;20349;-62
2022/12/04 12:27:22;;;;;;;;;;;;;;;;;;5106329;28;19965;-62
2022/12/04 12:29:47;;;;;;;;;;;;;;;;;;5069331;28;19913;-63
2022/12/04 12:32:12;;;;;;;;;;;;;;;;;;5056489;28;19978;-63
2022/12/04 12:34:38;;;;;;;;;;;;;;;;;;5056120;28;19909;-63
2022/12/04 12:37:03;;;;;;;;;;;;;;;;;;5055285;28;19996;-62
2022/12/04 12:39:29;;;;;;;;;;;;;;;;;;5063294;28;19931;-62
2022/12/04 12:41:54;;;;;;;;;;;;;;;;;;5064594;28;19950;-63
2022/12/04 12:44:19;;;;;;;;;;;;;;;;;;5053729;28;20011;-62
2022/12/04 12:46:47;;;;;;;;;;;;;;;;;;5055848;28;19913;-63
2022/12/04 12:49:12;;;;;;;;;;;;;;;;;;5068967;28;20364;-63
2022/12/04 12:51:38;;;;;;;;;;;;;;;;;;5082851;28;19913;-63
2022/12/04 12:54:03;;;;;;;;;;;;;;;;;;5055616;28;19916;-62
2022/12/04 12:56:28;;;;;;;;;;;;;;;;;;5055830;28;19909;-62
2022/12/04 12:58:53;;;;;;;;;;;;;;;;;;5062006;28;19912;-62
2022/12/04 13:01:18;;;;;;;;;;;;;;;;;;5073473;28;19913;-63
2022/12/04 13:03:43;;;;;;;;;;;;;;;;;;5091403;28;19912;-63
2022/12/04 13:06:08;;;;;;;;;;;;;;;;;;5091083;28;19916;-63
2022/12/04 13:08:34;;;;;;;;;;;;;;;;;;5074658;28;19912;-63
2022/12/04 13:10:59;;;;;;;;;;;;;;;;;;5079265;28;19931;-63
2022/12/04 13:13:24;;;;;;;;;;;;;;;;;;5079650;28;20352;-63
2022/12/04 13:15:50;;;;;;;;;;;;;;;;;;5089621;28;20365;-62
2022/12/04 13:18:15;;;;;;;;;;;;;;;;;;5090006;28;19986;-62
2022/12/04 13:20:40;;;;;;;;;;;;;;;;;;5076935;28;20266;-62
2022/12/04 13:23:05;;;;;;;;;;;;;;;;;;5094390;28;19917;-62
2022/12/04 13:25:33;;;;;;;;;;;;;;;;;;5095165;28;19923;-62
2022/12/04 13:27:58;;;;;;;;;;;;;;;;;;5090212;28;19908;-62
2022/12/04 13:30:23;;;;;;;;;;;;;;;;;;5074984;28;19917;-61
2022/12/04 13:32:48;;;;;;;;;;;;;;;;;;5096725;28;19912;-62
2022/12/04 13:35:13;;;;;;;;;;;;;;;;;;5075084;28;20289;-62
2022/12/04 13:37:38;;;;;;;;;;;;;;;;;;5073867;28;19909;-62
2022/12/04 13:40:04;;;;;;;;;;;;;;;;;;5073820;28;19912;-62
2022/12/04 13:42:29;;;;;;;;;;;;;;;;;;5067853;28;20021;-62
2022/12/04 13:44:54;;;;;;;;;;;;;;;;;;5070513;28;19913;-62
2022/12/04 13:47:19;;;;;;;;;;;;;;;;;;5054560;28;19926;-62
2022/12/04 13:49:45;;;;;;;;;;;;;;;;;;5073571;28;19912;-62
2022/12/04 13:52:10;;;;;;;;;;;;;;;;;;5060149;28;19915;-62
2022/12/04 13:54:35;;;;;;;;;;;;;;;;;;5101222;28;19905;-62
2022/12/04 13:57:00;;;;;;;;;;;;;;;;;;5074559;28;19912;-62
2022/12/04 13:59:25;;;;;;;;;;;;;;;;;;5072918;28;19935;-62
2022/12/04 14:01:50;;;;;;;;;;;;;;;;;;5089707;28;20265;-62
2022/12/04 14:04:15;;;;;;;;;;;;;;;;;;5071783;28;19919;-62
2022/12/04 14:06:40;;;;;;;;;;;;;;;;;;5068501;28;20003;-62
2022/12/04 14:09:06;;;;;;;;;;;;;;;;;;5106266;28;19936;-63
2022/12/04 14:11:31;;;;;;;;;;;;;;;;;;5074574;28;19913;-63
2022/12/04 14:13:56;;;;;;;;;;;;;;;;;;5078762;28;19912;-62
2022/12/04 14:16:22;;;;;;;;;;;;;;;;;;5106290;27;19917;-62
2022/12/04 14:18:47;;;;;;;;;;;;;;;;;;5058712;28;19908;-62
2022/12/04 14:21:12;;;;;;;;;;;;;;;;;;5093626;28;20121;-62
2022/12/04 14:23:37;;;;;;;;;;;;;;;;;;5092123;28;19915;-62
2022/12/04 14:26:04;;;;;;;;;;;;;;;;;;5072805;28;19924;-63
2022/12/04 14:28:29;;;;;;;;;;;;;;;;;;5073905;28;20389;-62
2022/12/04 14:30:54;;;;;;;;;;;;;;;;;;5087828;28;19999;-63
2022/12/04 14:33:19;;;;;;;;;;;;;;;;;;5090737;28;19963;-62
2022/12/04 14:35:44;;;;;;;;;;;;;;;;;;5073521;28;19913;-62
2022/12/04 14:38:09;;;;;;;;;;;;;;;;;;5072893;28;20383;-62
2022/12/04 14:40:34;;;;;;;;;;;;;;;;;;5070160;28;19913;-63
2022/12/04 14:43:00;;;;;;;;;;;;;;;;;;5072943;28;19919;-62
2022/12/04 14:45:25;;;;;;;;;;;;;;;;;;5080892;28;20272;-62
2022/12/04 14:47:50;;;;;;;;;;;;;;;;;;5082658;28;20368;-63
2022/12/04 14:50:15;;;;;;;;;;;;;;;;;;5109565;28;19912;-63
2022/12/04 14:52:40;;;;;;;;;;;;;;;;;;5082604;28;20002;-62
2022/12/04 14:55:06;;;;;;;;;;;;;;;;;;5093241;28;20337;-62
2022/12/04 14:57:31;;;;;;;;;;;;;;;;;;5070247;28;20323;-62
2022/12/04 14:59:56;;;;;;;;;;;;;;;;;;5102974;28;19912;-63
2022/12/04 15:02:21;;;;;;;;;;;;;;;;;;5071952;28;19923;-62
2022/12/04 15:04:46;;;;;;;;;;;;;;;;;;5073665;28;20356;-63
2022/12/04 15:07:12;;;;;;;;;;;;;;;;;;5071638;28;20071;-62
2022/12/04 15:12:33;;;;;;;;;;;;;;;;;;5071110;28;19919;-62
2022/12/04 15:14:58;;;;;;;;;;;;;;;;;;5074162;28;19919;-62
2022/12/04 15:17:23;;;;;;;;;;;;;;;;;;5079830;28;20010;-61
2022/12/04 15:19:48;;;;;;;;;;;;;;;;;;5099293;28;19912;-62
2022/12/04 15:22:13;;;;;;;;;;;;;;;;;;5095627;28;19919;-63
2022/12/04 15:24:38;;;;;;;;;;;;;;;;;;5072781;28;19920;-63
2022/12/04 15:27:04;;;;;;;;;;;;;;;;;;5070386;28;19954;-62
2022/12/04 15:29:31;;;;;;;;;;;;;;;;;;5066810;28;20472;-63
2022/12/04 15:31:56;;;;;;;;;;;;;;;;;;5070354;28;19920;-63
2022/12/04 15:34:21;;;;;;;;;;;;;;;;;;5077013;28;19920;-62
2022/12/04 15:36:46;;;;;;;;;;;;;;;;;;5074685;28;20629;-63
2022/12/04 15:39:11;;;;;;;;;;;;;;;;;;5067825;28;20392;-62
2022/12/04 15:41:36;;;;;;;;;;;;;;;;;;5072498;28;19909;-62
2022/12/04 15:44:01;;;;;;;;;;;;;;;;;;5073381;28;19935;-62
2022/12/04 15:46:27;;;;;;;;;;;;;;;;;;5081919;28;19924;-63
2022/12/04 15:48:52;;;;;;;;;;;;;;;;;;5077145;28;19916;-63
2022/12/04 15:51:17;;;;;;;;;;;;;;;;;;5062223;28;20011;-62
2022/12/04 15:53:42;;;;;;;;;;;;;;;;;;5063885;28;19919;-62
2022/12/04 15:56:07;;;;;;;;;;;;;;;;;;5061443;28;19967;-62
2022/12/04 15:58:33;;;;;;;;;;;;;;;;;;5066581;28;19920;-63
2022/12/04 16:00:58;;;;;;;;;;;;;;;;;;5086182;28;19909;-63
2022/12/04 16:03:23;;;;;;;;;;;;;;;;;;5070874;28;19917;-62
2022/12/04 16:05:48;;;;;;;;;;;;;;;;;;5064768;28;19916;-62
2022/12/04 16:08:13;;;;;;;;;;;;;;;;;;5053782;28;19913;-62
2022/12/04 16:10:38;;;;;;;;;;;;;;;;;;5062016;28;19913;-62
2022/12/04 16:13:03;;;;;;;;;;;;;;;;;;5076731;28;19913;-62
2022/12/04 16:15:29;;;;;;;;;;;;;;;;;;5095153;28;19995;-62
2022/12/04 16:17:54;;;;;;;;;;;;;;;;;;5081948;28;19916;-62
2022/12/04 16:20:19;;;;;;;;;;;;;;;;;;5072219;28;19915;-62
2022/12/04 16:22:44;;;;;;;;;;;;;;;;;;5068692;28;19917;-62
2022/12/04 16:25:09;;;;;;;;;;;;;;;;;;5099456;28;19955;-62
2022/12/04 16:27:34;;;;;;;;;;;;;;;;;;5069236;28;19920;-62
2022/12/04 16:30:00;;;;;;;;;;;;;;;;;;5105920;28;20369;-63
2022/12/04 16:32:26;;;;;;;;;;;;;;;;;;5056394;28;19924;-62
2022/12/04 16:34:51;;;;;;;;;;;;;;;;;;5068381;28;19916;-63
2022/12/04 16:37:16;;;;;;;;;;;;;;;;;;5064644;28;20430;-62
2022/12/04 16:39:41;;;;;;;;;;;;;;;;;;5067897;28;19912;-63
2022/12/04 16:42:06;;;;;;;;;;;;;;;;;;5064873;28;19913;-63
2022/12/04 16:44:31;;;;;;;;;;;;;;;;;;5071162;28;19951;-63
2022/12/04 16:46:56;;;;;;;;;;;;;;;;;;5069592;28;19918;-71